»·PEaware :: WAT175 KPHX-KLAS

WAT175 :: KPHX-KLAS

FLIGHT INFORMATION

Flight Status: Arrived
Operator: Unknown
More flights by this operator :: More flights under this callsign
Pilot: Anonymous 27126 (27126)
Aircraft: BOEING 737-800
(B738)
More flights by this aircraft type
Origin: KPHX Phoenix Sky Harbor Intl
United States
Destination: KLAS McCarran Intl
United States
More flights between these airports :: More routes between these airports
Route: ZEPER1 SISIE IGM TYSSN5
File this flight plan on PilotEdge
Remarks: RMK / SIMBRIEF
Altitude:
(Current/Filed)
28,000ft
Speed:
(Current/Filed)
437kts
Departed: 19-May-20 07:32 PM
Arrived: 19-May-20 08:15 PM
Distance/Time
Traveled:
222nm/0:42
Distance/Time
To Go:
Arrived

Flight Plot

Page will automatically refresh every two minutes.


Map Options




Map Legend


Flown Route
Filed Route
Departure Airport
Arrival Airport
Navaid (VOR, NDB)
Fix

Horizontal Profiles

Position Reports

Time Latitude Longitude Heading Altitude Ground
Speed
19-May-20 19:00 33.436888 -111.998769 270 1119ft 0kts
19-May-20 19:01 33.436888 -111.998769 270 1119ft 0kts
19-May-20 19:02 33.436888 -111.998769 270 1119ft 0kts
19-May-20 19:02 33.436888 -111.998769 270 1119ft 0kts
19-May-20 19:04 33.436888 -111.998769 270 1119ft 0kts
19-May-20 19:05 33.436888 -111.998769 270 1119ft 0kts
19-May-20 19:05 33.436888 -111.998769 270 1119ft 0kts
19-May-20 19:06 33.436888 -111.998769 270 1119ft 0kts
19-May-20 19:08 33.436888 -111.998769 270 1119ft 0kts
19-May-20 19:08 33.436888 -111.998769 270 1119ft 0kts
19-May-20 19:09 33.436888 -111.998769 270 1119ft 0kts
19-May-20 19:10 33.436888 -111.998769 270 1119ft 0kts
19-May-20 19:11 33.436888 -111.998769 270 1119ft 0kts
19-May-20 19:12 33.436888 -111.998769 270 1119ft 0kts
19-May-20 19:13 33.436888 -111.998769 270 1119ft 0kts
19-May-20 19:14 33.436888 -111.998769 270 1119ft 0kts
19-May-20 19:15 33.436888 -111.998769 270 1119ft 0kts
19-May-20 19:16 33.436888 -111.998769 270 1119ft 0kts
19-May-20 19:17 33.436888 -111.998769 270 1119ft 0kts
19-May-20 19:18 33.436888 -111.998769 270 1119ft 0kts
19-May-20 19:19 33.436888 -111.998769 270 1119ft 0kts
19-May-20 19:20 33.436888 -111.998769 270 1119ft 0kts
19-May-20 19:21 33.436888 -111.998769 270 1119ft 0kts
19-May-20 19:22 33.436845 -111.998322 318 1119ft 2kts
19-May-20 19:23 33.436657 -111.998259 0 1119ft 0kts
19-May-20 19:24 33.436726 -111.998258 1 1119ft 4kts
19-May-20 19:25 33.438314 -111.998277 0 1119ft 0kts
19-May-20 19:26 33.438314 -111.998277 0 1119ft 0kts
19-May-20 19:27 33.439064 -111.996587 91 1119ft 11kts
19-May-20 19:28 33.439068 -111.993290 89 1119ft 8kts
19-May-20 19:29 33.439703 -111.992296 1 1119ft 0kts
19-May-20 19:30 33.440841 -111.993454 270 1119ft 24kts
19-May-20 19:31 33.440227 -112.036892 264 2365ft 178kts
19-May-20 19:32 33.444351 -112.109091 267 5055ft 232kts
19-May-20 19:33 33.469032 -112.180116 324 7944ft 284kts
19-May-20 19:34 33.547982 -112.197419 352 8015ft 310kts
19-May-20 19:35 33.631195 -112.206614 344 8018ft 286kts
19-May-20 19:36 33.712250 -112.232336 341 8018ft 312kts
19-May-20 19:37 33.796631 -112.259530 341 8018ft 310kts
19-May-20 19:38 33.880403 -112.286599 341 8018ft 307kts
19-May-20 19:39 33.964613 -112.313869 341 9656ft 317kts
19-May-20 19:40 34.047802 -112.355472 317 12272ft 340kts
19-May-20 19:41 34.127531 -112.434768 315 13828ft 391kts
19-May-20 19:42 34.213019 -112.520764 315 16397ft 404kts
19-May-20 19:43 34.301107 -112.609652 314 18735ft 417kts
19-May-20 19:44 34.390739 -112.700249 313 20865ft 429kts
19-May-20 19:45 34.482997 -112.793711 313 21009ft 428kts
19-May-20 19:46 34.574829 -112.887207 312 21672ft 425kts
19-May-20 19:47 34.663179 -112.984150 310 23925ft 425kts
19-May-20 19:48 34.751983 -113.081649 310 25729ft 432kts
19-May-20 19:49 34.842666 -113.181092 309 27521ft 435kts
19-May-20 19:50 34.934081 -113.283160 304 27982ft 450kts
19-May-20 19:51 35.013394 -113.404224 293 27980ft 456kts
19-May-20 19:52 35.078512 -113.540186 291 27980ft 461kts
19-May-20 19:53 35.142754 -113.677810 290 27981ft 458kts
19-May-20 19:54 35.204012 -113.809906 290 25912ft 442kts
19-May-20 19:55 35.273227 -113.935254 309 24100ft 453kts
19-May-20 19:56 35.371698 -114.034730 314 23981ft 464kts
19-May-20 19:57 35.473848 -114.131551 314 22943ft 454kts
19-May-20 19:58 35.569464 -114.221071 315 21285ft 411kts
19-May-20 19:59 35.652770 -114.298872 314 20496ft 347kts
19-May-20 20:00 35.730504 -114.369047 321 18731ft 354kts
19-May-20 20:01 35.827758 -114.422518 333 15549ft 380kts
19-May-20 20:02 35.923414 -114.467983 334 13289ft 345kts
19-May-20 20:03 36.008678 -114.509533 324 11519ft 307kts
19-May-20 20:04 36.050080 -114.590431 278 9758ft 260kts
19-May-20 20:05 36.063965 -114.673670 277 8717ft 237kts
19-May-20 20:06 36.073466 -114.753569 266 7990ft 222kts
19-May-20 20:07 36.073258 -114.828572 266 6898ft 210kts
19-May-20 20:08 36.073464 -114.892822 266 5860ft 164kts
19-May-20 20:09 36.073563 -114.949380 266 4925ft 154kts
19-May-20 20:10 36.073608 -115.000731 268 4145ft 150kts
19-May-20 20:11 36.073643 -115.051679 268 3343ft 150kts
19-May-20 20:12 36.073499 -115.101526 269 2560ft 144kts
19-May-20 20:13 36.073602 -115.145206 268 2121ft 48kts
19-May-20 20:14 36.074460 -115.150008 301 2121ft 0kts
19-May-20 20:15 36.076450 -115.151983 334 2121ft 24kts
19-May-20 20:16 36.078878 -115.151578 67 2121ft 16kts
19-May-20 20:17 36.081003 -115.147689 62 2121ft 0kts
19-May-20 20:18 36.081003 -115.147689 62 2121ft 0kts

Navigation Log

Ident Type
Flight plan parsing failed, navigation log unavailable